Weather at Oban Airport

Public forecast

Using degrees Celsius for public forecast. Weather courtesy of forecast.io.

Current aviation weather report (METAR) for Oban Airport

Report is more than 2 hours old.

2023/02/05 15:50 (retrieved 3 hours ago)

EGEO 051550Z 18008KT 9999 FEW030 07/02 Q1042

Closest aviation forecast (TAF) to Oban Airport

Closest forecast is Glasgow International Airport, 48.0 nm (88.9 km) SE.

2023/02/05 18:00 (retrieved 31 minutes ago)

TAF EGPF 051655Z 0518/0618 21009KT 9999 SCT020 PROB30 TEMPO 0608/0614 6000 -RADZ BKN012